Time;durP1;ratioP1;P1;durP2;ratioP2;P2;SDS_P1;SDS_P2;PMS_P1;PMS_P2;Temp;Humidity;BMP_temperature;BMP_pressure;BME280_temperature;BME280_humidity;BME280_pressure;Samples;Min_cycle;Max_cycle;Signal;HPM_P1;HPM_P2
2023/07/28 00:01:28;;;;;;;6.07;4.90;;;19.10;99.90;;;;;;5014569;28;20248;-77
2023/07/28 00:03:54;;;;;;;4.53;4.13;;;19.10;99.90;;;;;;5032446;28;20190;-77
2023/07/28 00:06:20;;;;;;;6.50;4.63;;;19.10;99.90;;;;;;5030679;28;20191;-77
2023/07/28 00:08:46;;;;;;;6.60;4.30;;;19.10;99.90;;;;;;5032404;28;20189;-77
2023/07/28 00:11:13;;;;;;;5.17;4.67;;;19.10;99.90;;;;;;5030226;28;20206;-78
2023/07/28 00:13:39;;;;;;;5.43;4.40;;;19.10;99.90;;;;;;5032016;28;20248;-77
2023/07/28 00:16:05;;;;;;;5.00;4.50;;;19.10;99.90;;;;;;5031520;28;20678;-77
2023/07/28 00:18:31;;;;;;;5.87;4.53;;;19.10;99.90;;;;;;5030578;28;20850;-78
2023/07/28 00:20:57;;;;;;;5.03;4.43;;;19.10;99.90;;;;;;5031652;28;20194;-77
2023/07/28 00:23:23;;;;;;;4.47;4.07;;;19.10;99.90;;;;;;5031583;28;20207;-77
2023/07/28 00:25:48;;;;;;;4.77;4.20;;;19.10;99.90;;;;;;5031525;28;20620;-77
2023/07/28 00:28:14;;;;;;;5.33;3.97;;;19.20;99.90;;;;;;5023726;28;20187;-77
2023/07/28 00:30:40;;;;;;;4.30;3.90;;;19.10;99.90;;;;;;5024764;28;20681;-77
2023/07/28 00:33:05;;;;;;;4.50;3.50;;;19.10;99.90;;;;;;5031338;28;20202;-77
2023/07/28 00:35:32;;;;;;;5.17;3.97;;;19.20;99.90;;;;;;5030367;28;20182;-77
2023/07/28 00:37:58;;;;;;;3.87;3.53;;;19.20;99.90;;;;;;5031662;28;20309;-77
2023/07/28 00:40:24;;;;;;;4.43;3.60;;;19.20;99.90;;;;;;5013321;28;20548;-77
2023/07/28 00:42:50;;;;;;;3.83;3.50;;;19.10;99.90;;;;;;5030765;28;20657;-77
2023/07/28 00:45:16;;;;;;;4.57;3.80;;;19.20;99.90;;;;;;5031197;28;20267;-78
2023/07/28 00:47:42;;;;;;;4.50;3.90;;;19.20;99.90;;;;;;5031324;28;20183;-78
2023/07/28 00:50:10;;;;;;;4.37;3.40;;;19.20;99.90;;;;;;5030687;28;20210;-77
2023/07/28 00:52:36;;;;;;;4.07;3.67;;;19.20;99.90;;;;;;5031269;28;20229;-77
2023/07/28 00:55:02;;;;;;;5.23;3.87;;;19.20;99.90;;;;;;5031183;28;20190;-77
2023/07/28 00:57:28;;;;;;;4.80;3.80;;;19.10;99.90;;;;;;5013250;28;20248;-77
2023/07/28 00:59:54;;;;;;;3.90;3.40;;;19.10;99.90;;;;;;5017598;28;20214;-78
2023/07/28 01:02:21;;;;;;;4.13;3.73;;;19.10;99.90;;;;;;5029447;28;20376;-78
2023/07/28 01:04:48;;;;;;;4.60;4.00;;;19.10;99.90;;;;;;5024390;28;20186;-77
2023/07/28 01:07:26;;;;;;;4.40;3.77;;;19.10;99.90;;;;;;5029266;28;20568;-78
2023/07/28 01:10:17;;;;;;;4.43;3.60;;;19.10;99.90;;;;;;5029709;28;20190;-77
2023/07/28 01:12:42;;;;;;;4.53;3.73;;;19.10;99.90;;;;;;5023488;28;20680;-77
2023/07/28 01:15:09;;;;;;;5.83;3.57;;;19.10;99.90;;;;;;5030659;28;20183;-77
2023/07/28 01:17:34;;;;;;;5.77;3.93;;;19.20;99.90;;;;;;5012896;28;20182;-77
2023/07/28 01:20:00;;;;;;;6.30;4.00;;;19.10;99.90;;;;;;5030745;28;20193;-78
2023/07/28 01:22:52;;;;;;;4.40;4.00;;;19.10;99.90;;;;;;5030351;28;20214;-77
2023/07/28 01:25:54;;;;;;;5.73;4.20;;;19.20;99.90;;;;;;5029306;28;20190;-77
2023/07/28 01:28:20;;;;;;;4.77;4.17;;;19.10;99.90;;;;;;5029193;28;20185;-77
2023/07/28 01:30:47;;;;;;;4.77;3.77;;;19.10;99.90;;;;;;5007779;28;20309;-78
2023/07/28 01:33:13;;;;;;;4.53;3.83;;;19.10;99.90;;;;;;5020227;28;20214;-77
2023/07/28 01:35:38;;;;;;;4.37;3.97;;;19.20;99.90;;;;;;5028967;28;20183;-77
2023/07/28 01:38:04;;;;;;;5.03;4.13;;;19.10;99.90;;;;;;5006351;28;20201;-78
2023/07/28 01:40:30;;;;;;;5.60;4.10;;;19.10;99.90;;;;;;5028325;28;20222;-77
2023/07/28 01:42:56;;;;;;;4.60;4.13;;;19.10;99.90;;;;;;5029264;28;20301;-77
2023/07/28 01:45:22;;;;;;;7.27;4.20;;;19.10;99.90;;;;;;5028838;28;20193;-77
2023/07/28 01:47:47;;;;;;;4.10;3.67;;;19.10;99.90;;;;;;5028806;28;20937;-77
2023/07/28 01:50:13;;;;;;;4.17;3.50;;;19.10;99.90;;;;;;5028370;28;20217;-77
2023/07/28 01:52:39;;;;;;;5.37;4.07;;;19.00;99.90;;;;;;5022563;28;20210;-77
2023/07/28 01:55:06;;;;;;;4.10;3.60;;;19.00;99.90;;;;;;5028893;28;20653;-77
2023/07/28 01:57:39;;;;;;;6.23;4.27;;;19.10;99.90;;;;;;5028806;28;20625;-77
2023/07/28 02:00:05;;;;;;;4.63;3.90;;;19.00;99.90;;;;;;5028719;28;20270;-78
2023/07/28 02:02:39;;;;;;;5.73;3.40;;;19.10;99.90;;;;;;5028825;28;20221;-77
2023/07/28 02:05:06;;;;;;;3.60;3.30;;;19.10;99.90;;;;;;5029869;28;20629;-77
2023/07/28 02:07:31;;;;;;;3.70;3.23;;;19.10;99.90;;;;;;5012344;28;20244;-77
2023/07/28 02:09:57;;;;;;;4.70;4.10;;;19.10;99.90;;;;;;5028922;28;20202;-77
2023/07/28 02:12:23;;;;;;;4.60;3.83;;;19.10;99.90;;;;;;5029577;28;20556;-77
2023/07/28 02:14:49;;;;;;;4.07;3.67;;;19.10;99.90;;;;;;5028821;28;20538;-78
2023/07/28 02:17:14;;;;;;;5.30;3.97;;;19.10;99.90;;;;;;5011905;28;20201;-77
2023/07/28 02:19:40;;;;;;;5.40;3.93;;;19.10;99.90;;;;;;5028663;28;20186;-77
2023/07/28 02:22:06;;;;;;;4.70;4.17;;;19.10;99.90;;;;;;5027958;28;20198;-77
2023/07/28 02:24:31;;;;;;;6.43;3.70;;;19.10;99.90;;;;;;5028432;28;20634;-77
2023/07/28 02:26:57;;;;;;;5.43;3.83;;;19.10;99.90;;;;;;5011785;28;20190;-77
2023/07/28 02:29:25;;;;;;;5.17;3.73;;;19.10;99.90;;;;;;5028251;28;20187;-78
2023/07/28 02:31:51;;;;;;;3.57;3.27;;;19.10;99.90;;;;;;5011386;28;20222;-77
2023/07/28 02:34:17;;;;;;;4.53;3.77;;;19.10;99.90;;;;;;5012171;28;20193;-77
2023/07/28 02:36:42;;;;;;;4.77;3.70;;;19.10;99.90;;;;;;5029363;28;20547;-78
2023/07/28 02:39:08;;;;;;;4.30;3.90;;;19.10;99.90;;;;;;5028129;28;20182;-78
2023/07/28 02:41:34;;;;;;;4.00;3.70;;;19.00;99.90;;;;;;5027954;28;20260;-77
2023/07/28 02:43:59;;;;;;;5.30;3.70;;;19.00;99.90;;;;;;5028290;28;20187;-77
2023/07/28 02:46:25;;;;;;;3.90;3.50;;;19.10;99.90;;;;;;5028862;28;20190;-77
2023/07/28 02:48:51;;;;;;;4.00;3.40;;;19.10;99.90;;;;;;5029601;28;20182;-78
2023/07/28 02:51:17;;;;;;;3.87;3.47;;;19.10;99.90;;;;;;5027565;28;20235;-77
2023/07/28 02:53:43;;;;;;;4.07;3.67;;;19.10;99.90;;;;;;5015953;28;20216;-77
2023/07/28 02:56:09;;;;;;;3.60;3.30;;;19.10;99.90;;;;;;5031688;28;20182;-77
2023/07/28 02:58:35;;;;;;;5.17;3.63;;;19.10;99.90;;;;;;5031930;28;20596;-77
2023/07/28 03:01:01;;;;;;;3.93;3.20;;;19.10;99.90;;;;;;5031583;28;20186;-77
2023/07/28 03:03:34;;;;;;;3.70;3.30;;;19.10;99.90;;;;;;5031987;28;20218;-78
2023/07/28 03:06:00;;;;;;;4.90;3.40;;;19.10;99.90;;;;;;5031830;28;20538;-78
2023/07/28 03:08:26;;;;;;;3.27;2.97;;;19.10;99.90;;;;;;5031799;28;20205;-77
2023/07/28 03:10:58;;;;;;;4.40;3.30;;;19.10;99.90;;;;;;5015403;28;20207;-78
2023/07/28 03:13:24;;;;;;;4.20;3.53;;;19.10;99.90;;;;;;5031649;28;20279;-77
2023/07/28 03:15:50;;;;;;;4.23;3.80;;;19.10;99.90;;;;;;5032768;28;20186;-77
2023/07/28 03:18:19;;;;;;;3.97;3.13;;;19.10;99.90;;;;;;5031566;28;20213;-77
2023/07/28 03:20:46;;;;;;;3.80;3.50;;;19.10;99.90;;;;;;5031415;28;20251;-77
2023/07/28 03:23:11;;;;;;;3.57;3.00;;;19.10;99.90;;;;;;5032681;28;20202;-78
2023/07/28 03:25:37;;;;;;;3.87;3.40;;;19.10;99.90;;;;;;5032697;28;20182;-77
2023/07/28 03:28:03;;;;;;;3.40;3.10;;;19.10;99.90;;;;;;5024883;28;20183;-78
2023/07/28 03:30:28;;;;;;;3.43;3.13;;;19.10;99.90;;;;;;5032425;28;20210;-77
2023/07/28 03:32:54;;;;;;;3.10;2.80;;;19.10;99.90;;;;;;5031550;28;20606;-77
2023/07/28 03:35:20;;;;;;;3.70;3.40;;;19.10;99.90;;;;;;5031418;28;20554;-77
2023/07/28 03:37:53;;;;;;;3.70;3.10;;;19.10;99.90;;;;;;5031416;28;20179;-77
2023/07/28 03:40:19;;;;;;;4.67;3.30;;;19.10;99.90;;;;;;5031275;28;20189;-77
2023/07/28 03:42:51;;;;;;;4.17;3.33;;;19.10;99.90;;;;;;5031252;28;20719;-78
2023/07/28 03:45:18;;;;;;;4.53;3.20;;;19.10;99.90;;;;;;5032489;28;20197;-77
2023/07/28 03:47:43;;;;;;;5.50;3.53;;;19.10;99.90;;;;;;5031187;28;20194;-77
2023/07/28 03:50:09;;;;;;;3.87;3.43;;;19.10;99.90;;;;;;5031048;28;20210;-77
2023/07/28 03:52:35;;;;;;;4.47;3.57;;;19.10;99.90;;;;;;5030819;28;20210;-78
2023/07/28 03:55:01;;;;;;;3.97;3.43;;;19.20;99.90;;;;;;5031287;28;20346;-77
2023/07/28 03:57:27;;;;;;;4.10;3.70;;;19.10;99.90;;;;;;5030748;28;20187;-77
2023/07/28 03:59:52;;;;;;;3.93;3.50;;;19.20;99.90;;;;;;5032435;28;20229;-78
2023/07/28 04:02:18;;;;;;;4.20;3.80;;;19.20;99.90;;;;;;5031349;28;20206;-77
2023/07/28 04:04:44;;;;;;;3.50;3.20;;;19.20;99.90;;;;;;5032304;28;20183;-77
2023/07/28 04:07:10;;;;;;;4.57;3.67;;;19.20;99.90;;;;;;5013981;28;20252;-77
2023/07/28 04:09:35;;;;;;;4.30;3.60;;;19.20;99.90;;;;;;5014839;28;20178;-77
2023/07/28 04:12:01;;;;;;;3.90;3.50;;;19.20;99.90;;;;;;5030505;28;20237;-77
2023/07/28 04:14:27;;;;;;;3.80;3.50;;;19.20;99.90;;;;;;5030806;28;20716;-78
2023/07/28 04:16:52;;;;;;;4.57;3.60;;;19.20;99.90;;;;;;5030854;28;20228;-77
2023/07/28 04:19:18;;;;;;;4.43;3.40;;;19.20;99.90;;;;;;5032210;28;20842;-77
2023/07/28 04:21:45;;;;;;;4.00;3.67;;;19.30;99.90;;;;;;5032120;28;20347;-77
2023/07/28 04:24:11;;;;;;;3.80;3.50;;;19.30;99.90;;;;;;5030614;28;20859;-77
2023/07/28 04:26:42;;;;;;;6.17;3.60;;;19.30;99.90;;;;;;5020853;28;20218;-78
2023/07/28 04:29:08;;;;;;;4.10;3.70;;;19.30;99.90;;;;;;5027626;28;20644;-78
2023/07/28 04:31:34;;;;;;;4.27;3.57;;;19.30;99.90;;;;;;5030137;28;20550;-78
2023/07/28 04:34:05;;;;;;;3.97;3.60;;;19.30;99.90;;;;;;5030481;28;20178;-78
2023/07/28 04:36:49;;;;;;;6.43;3.50;;;19.30;99.90;;;;;;5026286;28;20210;-77
2023/07/28 04:39:17;;;;;;;4.20;3.40;;;19.30;99.90;;;;;;5014099;28;20174;-77
2023/07/28 04:41:42;;;;;;;4.00;3.60;;;19.30;99.90;;;;;;5030063;28;20178;-77
2023/07/28 04:44:08;;;;;;;4.33;3.93;;;19.30;99.90;;;;;;5030150;28;20186;-77
2023/07/28 04:46:38;;;;;;;3.73;3.43;;;19.20;99.90;;;;;;5030068;28;20260;-78
2023/07/28 04:49:08;;;;;;;4.57;4.17;;;19.30;99.90;;;;;;5030063;28;20226;-77
2023/07/28 04:52:08;;;;;;;4.30;3.93;;;19.30;99.90;;;;;;4953571;28;20598;-77
2023/07/28 04:54:55;;;;;;;4.00;3.60;;;19.30;99.90;;;;;;5020765;28;20577;-77
2023/07/28 04:57:20;;;;;;;3.87;3.57;;;19.30;99.90;;;;;;5029564;28;20186;-78
2023/07/28 04:59:46;;;;;;;5.10;3.30;;;19.30;99.90;;;;;;5029987;28;20194;-77
2023/07/28 05:02:12;;;;;;;3.80;3.50;;;19.30;99.90;;;;;;5040181;22;20223;-76
2023/07/28 05:04:38;;;;;;;3.57;3.27;;;19.30;99.90;;;;;;5028039;28;20222;-75
2023/07/28 05:07:04;;;;;;;3.73;3.30;;;19.30;99.90;;;;;;5013003;28;20187;-75
2023/07/28 05:09:30;;;;;;;3.60;3.07;;;19.30;99.90;;;;;;5027902;28;20178;-76
2023/07/28 05:11:56;;;;;;;4.47;3.43;;;19.30;99.90;;;;;;5029282;28;20577;-76
2023/07/28 05:14:22;;;;;;;3.47;3.17;;;19.30;99.90;;;;;;5023092;28;20597;-75
2023/07/28 05:16:48;;;;;;;3.23;2.93;;;19.30;99.90;;;;;;5020424;28;20244;-76
2023/07/28 05:19:26;;;;;;;3.40;3.10;;;19.30;99.90;;;;;;5024377;28;20183;-76
2023/07/28 05:22:14;;;;;;;4.00;2.90;;;19.40;99.90;;;;;;5025131;28;20741;-76
2023/07/28 05:24:45;;;;;;;3.00;2.70;;;19.30;99.90;;;;;;5013959;28;20240;-76
2023/07/28 05:27:12;;;;;;;3.67;2.73;;;19.40;99.90;;;;;;5024787;28;20190;-76
2023/07/28 05:29:40;;;;;;;2.80;2.60;;;19.40;99.90;;;;;;5025826;28;20180;-76
2023/07/28 05:32:07;;;;;;;3.13;2.70;;;19.50;99.90;;;;;;5026444;28;20752;-75
2023/07/28 05:34:46;;;;;;;3.10;2.70;;;19.50;99.90;;;;;;5014018;28;20182;-76
2023/07/28 05:37:12;;;;;;;4.07;2.97;;;19.50;99.90;;;;;;5024507;28;20194;-76
2023/07/28 05:39:38;;;;;;;5.93;2.60;;;19.60;99.90;;;;;;5025280;28;20190;-76
2023/07/28 05:42:04;;;;;;;2.73;2.50;;;19.50;99.90;;;;;;5025969;28;20214;-76
2023/07/28 05:44:31;;;;;;;3.10;2.70;;;19.60;99.90;;;;;;5011141;28;20179;-76
2023/07/28 05:46:57;;;;;;;3.20;2.90;;;19.60;99.90;;;;;;5025618;28;20194;-76
2023/07/28 05:49:23;;;;;;;3.57;2.40;;;19.60;99.90;;;;;;5023806;28;20187;-76
2023/07/28 05:51:49;;;;;;;2.80;2.60;;;19.60;99.90;;;;;;5025232;28;20214;-76
2023/07/28 05:54:15;;;;;;;3.10;2.80;;;19.60;99.90;;;;;;5017664;28;20190;-76
2023/07/28 05:56:42;;;;;;;3.13;2.83;;;19.60;99.90;;;;;;5024958;28;20208;-76
2023/07/28 05:59:08;;;;;;;3.60;2.63;;;19.60;99.90;;;;;;4995605;28;20206;-76
2023/07/28 06:01:34;;;;;;;4.80;2.67;;;19.70;99.90;;;;;;5024819;28;20179;-76
2023/07/28 06:04:18;;;;;;;3.13;2.70;;;19.70;99.90;;;;;;5024972;28;20198;-76
2023/07/28 06:06:47;;;;;;;3.00;2.70;;;19.70;99.90;;;;;;5021339;28;20679;-76
2023/07/28 06:09:14;;;;;;;3.90;2.60;;;19.70;99.90;;;;;;4992903;28;20197;-76
2023/07/28 06:11:41;;;;;;;4.27;2.80;;;19.80;99.90;;;;;;5024740;28;20225;-76
2023/07/28 06:14:07;;;;;;;4.60;2.83;;;19.80;99.90;;;;;;5025003;28;20187;-76
2023/07/28 06:16:35;;;;;;;2.53;2.33;;;19.80;99.90;;;;;;5005558;28;20180;-77
2023/07/28 06:19:01;;;;;;;2.90;2.60;;;19.80;99.90;;;;;;4993506;28;20187;-78
2023/07/28 06:21:27;;;;;;;2.70;2.50;;;19.80;99.90;;;;;;5016160;28;20182;-79
2023/07/28 06:23:53;;;;;;;2.73;2.53;;;19.90;99.90;;;;;;5021346;28;20187;-79
2023/07/28 06:26:19;;;;;;;4.23;2.70;;;19.90;99.90;;;;;;5017535;28;20187;-79
2023/07/28 06:28:45;;;;;;;3.07;2.63;;;19.90;99.90;;;;;;5020573;28;20197;-79
2023/07/28 06:31:11;;;;;;;2.90;2.70;;;19.90;99.90;;;;;;5019066;28;20570;-79
2023/07/28 06:33:37;;;;;;;3.17;2.50;;;19.90;99.90;;;;;;5013313;28;20203;-79
2023/07/28 06:36:04;;;;;;;2.93;2.63;;;19.90;99.90;;;;;;5026656;28;20175;-79
2023/07/28 06:38:30;;;;;;;3.13;2.83;;;19.90;99.90;;;;;;5010321;28;20559;-79
2023/07/28 06:40:55;;;;;;;2.57;2.37;;;19.80;99.90;;;;;;5021854;28;20186;-79
2023/07/28 06:43:21;;;;;;;2.90;2.60;;;19.80;99.90;;;;;;5018582;28;20206;-79
2023/07/28 06:45:51;;;;;;;5.47;2.77;;;19.80;99.90;;;;;;5015902;28;20183;-79
2023/07/28 06:48:16;;;;;;;2.83;2.63;;;19.80;99.90;;;;;;5017903;28;20193;-79
2023/07/28 06:50:43;;;;;;;3.03;2.77;;;19.80;99.90;;;;;;5015915;28;20298;-79
2023/07/28 06:53:08;;;;;;;3.23;2.80;;;19.80;99.90;;;;;;5009806;28;20218;-79
2023/07/28 06:55:35;;;;;;;4.03;2.70;;;19.80;99.90;;;;;;5015949;28;20191;-79
2023/07/28 06:58:04;;;;;;;2.80;2.50;;;19.90;99.90;;;;;;5016582;28;20265;-79
2023/07/28 07:00:29;;;;;;;4.13;3.00;;;19.90;99.90;;;;;;5016164;28;20356;-79
2023/07/28 07:02:55;;;;;;;3.73;2.63;;;19.90;99.90;;;;;;5021975;28;20715;-79
2023/07/28 07:05:21;;;;;;;3.80;2.60;;;19.90;99.90;;;;;;5018552;28;20193;-79
2023/07/28 07:07:47;;;;;;;3.07;2.63;;;19.90;99.90;;;;;;5019898;28;20179;-79
2023/07/28 07:10:12;;;;;;;4.20;2.73;;;19.90;99.90;;;;;;5019967;28;20232;-79
2023/07/28 07:12:38;;;;;;;4.00;2.97;;;19.90;99.90;;;;;;5019893;28;20198;-79
2023/07/28 07:15:05;;;;;;;2.60;2.37;;;19.90;99.90;;;;;;5003214;28;20576;-79
2023/07/28 07:17:32;;;;;;;3.00;2.60;;;19.90;99.90;;;;;;5024476;28;20222;-79
2023/07/28 07:19:58;;;;;;;2.60;2.40;;;20.00;99.90;;;;;;5028026;28;20193;-78
2023/07/28 07:22:23;;;;;;;3.10;2.80;;;20.00;99.90;;;;;;5011157;28;20207;-79
2023/07/28 07:24:49;;;;;;;2.53;2.33;;;20.00;99.90;;;;;;4999168;28;20194;-79
2023/07/28 07:27:15;;;;;;;3.23;2.50;;;20.00;99.90;;;;;;5009336;28;20184;-79
2023/07/28 07:29:40;;;;;;;5.23;2.90;;;20.10;99.90;;;;;;5013424;28;20252;-79
2023/07/28 07:32:07;;;;;;;2.90;2.70;;;20.10;99.90;;;;;;5008367;28;20219;-79
2023/07/28 07:34:34;;;;;;;2.70;2.50;;;20.20;99.90;;;;;;5012362;28;20528;-79
2023/07/28 07:37:00;;;;;;;4.23;2.60;;;20.20;99.90;;;;;;5025628;28;20266;-79
2023/07/28 07:39:25;;;;;;;3.03;2.70;;;20.20;99.90;;;;;;5015441;28;20629;-79
2023/07/28 07:41:51;;;;;;;2.90;2.70;;;20.30;99.90;;;;;;5022779;28;20206;-79
2023/07/28 07:44:17;;;;;;;3.63;2.93;;;20.40;99.90;;;;;;5022995;28;20650;-79
2023/07/28 07:46:42;;;;;;;2.97;2.67;;;20.50;99.90;;;;;;5019356;28;20183;-79
2023/07/28 07:49:08;;;;;;;4.87;2.63;;;20.60;99.90;;;;;;5020555;28;20522;-79
2023/07/28 07:51:34;;;;;;;4.03;2.83;;;20.60;99.90;;;;;;5012368;28;20214;-79
2023/07/28 07:54:03;;;;;;;3.50;2.73;;;20.70;99.90;;;;;;5019868;28;20183;-79
2023/07/28 07:56:29;;;;;;;3.50;2.80;;;20.80;99.90;;;;;;5026643;28;20608;-79
2023/07/28 07:58:55;;;;;;;3.83;3.00;;;20.90;99.90;;;;;;5019205;28;20187;-79
2023/07/28 08:01:20;;;;;;;3.03;2.73;;;21.00;99.90;;;;;;5020041;28;20654;-79
2023/07/28 08:03:46;;;;;;;2.93;2.40;;;21.00;99.90;;;;;;5022837;28;20225;-79
2023/07/28 08:06:12;;;;;;;3.67;3.10;;;21.10;99.90;;;;;;5022221;28;20216;-79
2023/07/28 08:08:38;;;;;;;2.90;2.60;;;21.20;99.90;;;;;;5023135;28;20187;-79
2023/07/28 08:11:04;;;;;;;3.80;2.70;;;21.20;99.90;;;;;;5028439;28;20222;-79
2023/07/28 08:13:30;;;;;;;3.10;2.70;;;21.40;99.90;;;;;;5014955;28;20215;-79
2023/07/28 08:15:56;;;;;;;4.50;3.00;;;21.40;99.90;;;;;;5018341;28;20249;-79
2023/07/28 08:18:22;;;;;;;3.07;2.77;;;21.60;99.90;;;;;;5013907;28;20183;-79
2023/07/28 08:20:48;;;;;;;2.60;2.40;;;21.70;99.90;;;;;;5024048;28;20394;-79
2023/07/28 08:23:14;;;;;;;3.97;2.30;;;21.70;99.90;;;;;;5016649;28;20207;-79
2023/07/28 08:25:40;;;;;;;3.87;2.43;;;21.80;99.90;;;;;;5025980;28;20263;-79
2023/07/28 08:28:05;;;;;;;2.57;2.10;;;21.90;99.90;;;;;;4995723;28;20214;-79
2023/07/28 08:30:31;;;;;;;2.50;2.30;;;21.90;99.90;;;;;;5026112;28;20211;-79
2023/07/28 08:32:57;;;;;;;3.20;2.60;;;21.90;99.90;;;;;;5018391;28;20670;-79
2023/07/28 08:35:23;;;;;;;2.67;2.47;;;22.00;99.90;;;;;;5012910;28;20206;-79
2023/07/28 08:37:49;;;;;;;2.97;2.77;;;22.10;99.90;;;;;;5013399;28;20246;-79
2023/07/28 08:40:15;;;;;;;2.90;2.60;;;22.10;99.90;;;;;;5019804;28;20222;-79
2023/07/28 08:42:41;;;;;;;5.43;2.80;;;22.30;99.90;;;;;;5013186;28;20215;-79
2023/07/28 08:45:08;;;;;;;3.17;2.70;;;22.30;99.90;;;;;;5013363;28;20269;-79
2023/07/28 08:47:34;;;;;;;3.80;2.57;;;22.30;99.90;;;;;;5027990;28;20183;-79
2023/07/28 08:50:01;;;;;;;4.47;2.70;;;22.20;99.90;;;;;;5019328;28;20209;-79
2023/07/28 08:52:27;;;;;;;2.90;2.60;;;22.10;99.90;;;;;;5017363;28;20222;-79
2023/07/28 08:54:53;;;;;;;3.07;2.77;;;22.10;99.90;;;;;;5011836;28;20579;-79
2023/07/28 08:57:20;;;;;;;3.00;2.70;;;22.00;99.90;;;;;;5011947;28;20245;-79
2023/07/28 08:59:49;;;;;;;3.00;2.70;;;21.80;99.90;;;;;;5019940;28;20183;-79
2023/07/28 09:02:17;;;;;;;3.70;2.70;;;21.70;99.90;;;;;;5017569;28;20230;-79
2023/07/28 09:04:44;;;;;;;2.87;2.57;;;21.70;99.90;;;;;;5023208;28;20278;-79
2023/07/28 09:07:10;;;;;;;3.40;2.87;;;21.80;99.90;;;;;;5021340;28;20225;-79
2023/07/28 09:09:40;;;;;;;2.90;2.70;;;21.80;99.90;;;;;;5012908;28;20215;-79
2023/07/28 09:12:06;;;;;;;2.90;2.70;;;21.80;99.90;;;;;;5018664;28;20740;-79
2023/07/28 09:14:35;;;;;;;3.20;2.60;;;21.80;99.90;;;;;;5016490;28;20198;-79
2023/07/28 09:17:13;;;;;;;2.30;2.10;;;21.80;99.90;;;;;;5012349;28;20179;-79
2023/07/28 09:19:57;;;;;;;2.50;2.30;;;21.90;99.90;;;;;;5021954;28;20187;-79
2023/07/28 09:22:23;;;;;;;2.50;2.10;;;22.00;99.90;;;;;;5020351;28;20207;-79
2023/07/28 09:24:50;;;;;;;3.23;2.00;;;22.10;99.90;;;;;;5028828;28;20664;-79
2023/07/28 09:27:26;;;;;;;3.17;1.80;;;22.10;99.90;;;;;;5012939;28;20183;-79
2023/07/28 09:29:54;;;;;;;2.50;2.30;;;22.10;99.90;;;;;;5018078;28;20186;-79
2023/07/28 09:32:29;;;;;;;2.40;1.87;;;22.30;99.90;;;;;;5018667;28;20222;-79
2023/07/28 09:35:12;;;;;;;3.30;2.07;;;22.40;99.90;;;;;;5021164;28;20192;-79
2023/07/28 09:37:43;;;;;;;2.60;2.23;;;22.50;99.90;;;;;;5027637;28;20202;-79
2023/07/28 09:40:13;;;;;;;3.73;2.73;;;22.60;99.90;;;;;;5015153;28;20787;-79
2023/07/28 09:42:40;;;;;;;2.70;2.50;;;22.70;99.90;;;;;;5011652;28;20759;-79
2023/07/28 09:45:08;;;;;;;3.60;2.43;;;22.70;99.90;;;;;;5017158;28;20178;-79
2023/07/28 09:47:37;;;;;;;3.10;2.50;;;22.70;99.90;;;;;;5017884;28;20186;-79
2023/07/28 09:50:09;;;;;;;2.60;2.40;;;22.80;99.90;;;;;;5018456;28;20188;-79
2023/07/28 09:52:41;;;;;;;2.50;2.30;;;22.80;99.90;;;;;;5026753;28;20683;-79
2023/07/28 09:55:11;;;;;;;2.70;2.50;;;22.80;99.90;;;;;;5028546;28;20257;-79
2023/07/28 09:57:45;;;;;;;2.50;2.30;;;22.80;99.90;;;;;;5026839;28;20674;-79
2023/07/28 10:00:13;;;;;;;2.73;2.53;;;22.80;99.90;;;;;;5019686;28;20182;-80
2023/07/28 10:02:40;;;;;;;3.47;2.63;;;22.80;99.90;;;;;;5013696;28;20228;-79
2023/07/28 10:05:07;;;;;;;2.57;2.30;;;22.80;99.90;;;;;;5028269;28;20202;-79
2023/07/28 10:07:35;;;;;;;3.93;2.37;;;23.00;99.90;;;;;;5006556;28;20187;-79
2023/07/28 10:10:06;;;;;;;2.60;2.40;;;23.10;99.90;;;;;;5023808;28;20182;-80
2023/07/28 10:12:45;;;;;;;3.27;2.27;;;23.20;99.90;;;;;;5017767;28;20203;-79
2023/07/28 10:15:16;;;;;;;2.53;2.10;;;23.00;99.90;;;;;;5017912;28;20551;-79
2023/07/28 10:17:57;;;;;;;2.30;2.10;;;23.20;99.90;;;;;;5009724;28;20218;-79
2023/07/28 10:20:39;;;;;;;2.37;2.10;;;23.50;99.90;;;;;;5000803;28;20199;-79
2023/07/28 10:23:17;;;;;;;2.80;2.03;;;23.80;99.90;;;;;;5027781;28;20708;-79
2023/07/28 10:25:44;;;;;;;2.30;2.10;;;23.90;99.90;;;;;;5011700;28;20613;-79
2023/07/28 10:28:34;;;;;;;3.23;2.10;;;24.10;99.90;;;;;;5011345;28;20200;-79
2023/07/28 10:31:01;;;;;;;2.20;2.00;;;24.00;99.90;;;;;;5012198;28;20242;-79
2023/07/28 10:33:35;;;;;;;2.07;1.73;;;23.90;99.90;;;;;;5013050;28;20210;-80
2023/07/28 10:36:32;;;;;;;1.93;1.73;;;23.80;99.90;;;;;;5021991;28;20211;-80
2023/07/28 10:39:12;;;;;;;2.17;1.90;;;23.60;99.90;;;;;;5006266;28;20191;-80
2023/07/28 10:41:38;;;;;;;1.93;1.80;;;23.30;99.90;;;;;;5018517;28;20190;-79
2023/07/28 10:44:05;;;;;;;2.23;2.00;;;23.20;99.90;;;;;;5015432;28;20195;-79
2023/07/28 10:46:34;;;;;;;3.53;1.93;;;23.00;99.90;;;;;;5012905;28;20218;-80
2023/07/28 10:49:04;;;;;;;2.33;1.83;;;22.90;99.90;;;;;;5012870;28;20604;-79
2023/07/28 10:51:33;;;;;;;2.37;1.80;;;22.80;99.90;;;;;;5019687;28;20219;-79
2023/07/28 10:54:00;;;;;;;3.23;1.87;;;22.80;99.90;;;;;;5027642;28;20214;-79
2023/07/28 10:56:26;;;;;;;3.20;1.90;;;22.70;99.90;;;;;;5010212;28;20192;-79
2023/07/28 10:58:57;;;;;;;2.83;2.03;;;22.80;99.90;;;;;;5015627;28;20275;-79
2023/07/28 11:01:33;;;;;;;2.90;1.90;;;22.80;99.90;;;;;;5012270;28;20235;-79
2023/07/28 11:04:19;;;;;;;2.00;1.90;;;23.00;99.90;;;;;;5083871;22;20237;-77
2023/07/28 11:06:47;;;;;;;2.10;1.80;;;23.10;99.90;;;;;;5062412;28;20190;-77
2023/07/28 11:09:15;;;;;;;2.40;2.10;;;23.30;99.90;;;;;;5045268;28;20192;-77
2023/07/28 11:11:42;;;;;;;3.10;2.20;;;23.40;99.90;;;;;;5048900;28;20249;-77
2023/07/28 11:14:08;;;;;;;1.80;1.70;;;23.60;99.90;;;;;;5035034;28;20196;-77
2023/07/28 11:16:39;;;;;;;2.10;2.00;;;23.90;99.90;;;;;;5042778;28;20184;-77
2023/07/28 11:19:10;;;;;;;1.93;1.83;;;24.10;99.90;;;;;;5039719;28;20179;-77
2023/07/28 11:21:41;;;;;;;2.73;2.00;;;24.20;99.90;;;;;;5028897;28;20527;-77
2023/07/28 11:24:08;;;;;;;2.00;1.90;;;24.40;99.90;;;;;;5048004;28;20194;-77
2023/07/28 11:26:35;;;;;;;2.20;2.00;;;24.30;99.90;;;;;;5039335;28;20749;-77
2023/07/28 11:29:01;;;;;;;2.90;2.10;;;24.30;99.90;;;;;;5048136;28;20585;-77
2023/07/28 11:31:27;;;;;;;2.83;2.00;;;24.10;99.90;;;;;;5027812;28;20215;-78
2023/07/28 11:33:53;;;;;;;2.07;1.87;;;24.10;99.90;;;;;;5026034;28;20663;-77
2023/07/28 11:36:27;;;;;;;1.93;1.83;;;24.20;99.90;;;;;;5013575;28;20187;-78
2023/07/28 11:38:54;;;;;;;2.73;2.10;;;24.10;99.90;;;;;;5036610;28;20187;-77
2023/07/28 11:41:21;;;;;;;3.80;2.30;;;24.10;99.90;;;;;;5044292;28;20241;-77
2023/07/28 11:43:50;;;;;;;2.40;2.20;;;24.10;99.90;;;;;;5034837;28;20218;-77
2023/07/28 11:46:38;;;;;;;4.17;2.30;;;24.20;99.90;;;;;;5028354;28;20179;-78
2023/07/28 11:49:16;;;;;;;2.40;1.93;;;24.20;99.90;;;;;;5027300;28;20302;-78
2023/07/28 11:51:48;;;;;;;3.40;2.43;;;24.20;99.90;;;;;;5032368;28;20202;-77
2023/07/28 11:54:15;;;;;;;2.47;1.93;;;24.10;99.90;;;;;;5046212;28;20180;-78
2023/07/28 11:56:45;;;;;;;2.13;1.93;;;24.10;99.90;;;;;;5010484;28;20214;-77
2023/07/28 11:59:14;;;;;;;2.57;1.90;;;24.00;99.90;;;;;;5042531;28;20263;-77
2023/07/28 12:01:59;;;;;;;3.10;2.43;;;23.90;99.90;;;;;;5046658;28;20192;-78
2023/07/28 12:04:25;;;;;;;3.83;2.20;;;23.80;99.90;;;;;;5034159;28;20279;-77
2023/07/28 12:07:06;;;;;;;2.03;1.90;;;24.00;99.90;;;;;;5047096;28;20680;-78
2023/07/28 12:09:49;;;;;;;2.23;2.00;;;24.00;99.90;;;;;;5042054;28;20201;-78
2023/07/28 12:12:20;;;;;;;2.03;1.80;;;24.10;99.90;;;;;;5044164;28;20661;-77
2023/07/28 12:14:47;;;;;;;2.80;2.20;;;24.10;99.90;;;;;;5014485;28;20544;-77
2023/07/28 12:17:19;;;;;;;2.10;1.90;;;24.10;99.90;;;;;;5046258;28;20182;-77
2023/07/28 12:20:14;;;;;;;2.93;2.40;;;24.00;99.90;;;;;;5042126;28;20182;-77
2023/07/28 12:22:41;;;;;;;2.70;2.50;;;24.10;99.90;;;;;;5046767;28;20238;-77
2023/07/28 12:25:07;;;;;;;2.60;2.40;;;23.80;99.90;;;;;;5036397;28;20184;-78
2023/07/28 12:27:33;;;;;;;2.37;2.17;;;23.80;99.90;;;;;;5024918;28;20202;-77
2023/07/28 12:29:59;;;;;;;2.50;2.30;;;23.70;99.90;;;;;;5041917;28;20242;-77
2023/07/28 12:32:25;;;;;;;2.60;2.40;;;23.80;99.90;;;;;;5043164;28;20631;-78
2023/07/28 12:34:50;;;;;;;2.57;2.20;;;23.70;99.90;;;;;;5026554;28;20178;-77
2023/07/28 12:37:17;;;;;;;2.40;2.20;;;23.60;99.90;;;;;;5041892;28;20193;-77
2023/07/28 12:39:43;;;;;;;2.37;2.17;;;23.40;99.90;;;;;;5044167;28;20186;-77
2023/07/28 12:42:10;;;;;;;2.03;1.93;;;23.30;99.90;;;;;;5025260;28;20574;-77
2023/07/28 12:44:37;;;;;;;2.40;2.20;;;23.20;99.90;;;;;;5040309;28;20553;-77
2023/07/28 12:47:03;;;;;;;2.87;2.03;;;23.10;99.90;;;;;;5040700;28;20193;-78
2023/07/28 12:49:30;;;;;;;2.03;1.90;;;23.00;99.90;;;;;;5042080;28;20204;-77
2023/07/28 12:51:58;;;;;;;1.90;1.80;;;22.90;99.90;;;;;;5028318;28;20567;-77
2023/07/28 12:54:24;;;;;;;1.97;1.80;;;22.80;99.90;;;;;;5046208;28;20177;-77